Time;durP1;ratioP1;P1;durP2;ratioP2;P2;SDS_P1;SDS_P2;PMS_P1;PMS_P2;Temp;Humidity;BMP_temperature;BMP_pressure;BME280_temperature;BME280_humidity;BME280_pressure;Samples;Min_cycle;Max_cycle;Signal;HPM_P1;HPM_P2
2023/01/02 00:00:36;;;;;;;0.35;0.35;;;9.10;99.90;;;;;;4980675;28;20042;-85
2023/01/02 00:03:03;;;;;;;0.35;0.35;;;9.10;99.90;;;;;;4980367;28;20046;-85
2023/01/02 00:05:29;;;;;;;0.40;0.40;;;9.10;99.90;;;;;;4967573;28;20042;-85
2023/01/02 00:07:55;;;;;;;1.05;1.05;;;9.10;99.90;;;;;;4968358;28;20062;-84
2023/01/02 00:10:22;;;;;;;0.40;0.40;;;9.10;99.90;;;;;;4951838;28;20053;-84
2023/01/02 00:12:47;;;;;;;0.40;0.40;;;9.10;99.90;;;;;;4982035;28;20440;-85
2023/01/02 00:15:14;;;;;;;0.40;0.40;;;9.10;99.90;;;;;;4984231;28;20047;-85
2023/01/02 00:17:40;;;;;;;0.47;0.47;;;9.10;99.90;;;;;;4987558;28;20042;-85
2023/01/02 00:20:06;;;;;;;0.30;0.30;;;9.10;99.90;;;;;;4977999;28;20082;-84
2023/01/02 00:22:32;;;;;;;;;;;9.10;99.90;;;;;;4989832;28;20044;-84
2023/01/02 00:24:58;;;;;;;0.30;0.30;;;9.20;99.90;;;;;;4987619;28;20001;-84
2023/01/02 00:27:23;;;;;;;0.50;0.50;;;9.20;99.90;;;;;;4988467;28;20462;-86
2023/01/02 00:29:49;;;;;;;0.50;0.50;;;9.20;99.90;;;;;;4988379;28;20042;-86
2023/01/02 00:32:15;;;;;;;0.40;0.40;;;9.20;99.90;;;;;;4987031;28;20435;-85
2023/01/02 00:34:40;;;;;;;0.30;0.30;;;9.20;99.90;;;;;;4990693;28;20077;-85
2023/01/02 00:37:06;;;;;;;0.45;0.45;;;9.20;99.90;;;;;;4973203;28;20049;-84
2023/01/02 00:39:32;;;;;;;0.60;0.60;;;9.20;99.90;;;;;;4972955;28;20035;-85
2023/01/02 00:41:57;;;;;;;0.40;0.40;;;9.20;99.90;;;;;;4958152;28;20445;-84
2023/01/02 00:44:23;;;;;;;0.40;0.40;;;9.20;99.90;;;;;;4993235;28;20034;-84
2023/01/02 00:46:49;;;;;;;0.40;0.40;;;9.20;99.90;;;;;;4993494;28;21294;-85
2023/01/02 00:49:14;;;;;;;0.30;0.30;;;9.30;99.90;;;;;;4990323;28;20054;-85
2023/01/02 00:51:40;;;;;;;0.40;0.40;;;9.30;99.90;;;;;;5012869;28;20049;-82
2023/01/02 00:54:06;;;;;;;0.40;0.40;;;9.10;99.90;;;;;;5020178;28;20138;-85
2023/01/02 00:56:32;;;;;;;0.63;0.63;;;9.40;99.90;;;;;;4971818;28;20044;-85
2023/01/02 00:58:57;;;;;;;0.40;0.40;;;9.40;99.90;;;;;;4972665;28;20464;-82
2023/01/02 01:01:30;;;;;;;0.50;0.50;;;9.40;99.90;;;;;;4969208;28;21772;-84
2023/01/02 01:03:56;;;;;;;0.30;0.30;;;9.50;99.90;;;;;;4971248;28;20057;-84
2023/01/02 01:06:21;;;;;;;0.35;0.35;;;9.50;99.90;;;;;;4987614;28;20043;-84
2023/01/02 01:08:47;;;;;;;0.40;0.40;;;9.50;99.90;;;;;;4971932;28;20496;-85
2023/01/02 01:11:15;;;;;;;0.75;0.75;;;9.60;99.90;;;;;;4973742;28;20054;-84
2023/01/02 01:13:41;;;;;;;0.50;0.50;;;9.70;99.90;;;;;;4986148;28;20546;-85
2023/01/02 01:16:09;;;;;;;0.70;0.70;;;9.70;99.90;;;;;;4987922;28;20042;-84
2023/01/02 01:18:36;;;;;;;0.40;0.40;;;9.70;99.90;;;;;;4987731;28;20042;-84
2023/01/02 01:21:19;;;;;;;0.47;0.47;;;9.70;99.90;;;;;;4969395;28;20064;-84
2023/01/02 01:23:50;;;;;;;0.40;0.40;;;9.80;99.90;;;;;;4970165;28;20038;-84
2023/01/02 01:26:16;;;;;;;0.50;0.50;;;9.80;99.90;;;;;;4985793;28;20138;-84
2023/01/02 01:28:42;;;;;;;0.47;0.47;;;9.90;99.90;;;;;;4985779;28;20041;-83
2023/01/02 01:31:10;;;;;;;0.40;0.40;;;10.10;99.90;;;;;;4967677;28;20038;-82
2023/01/02 01:33:37;;;;;;;0.30;0.30;;;9.90;99.90;;;;;;4986323;28;20046;-84
2023/01/02 01:36:07;;;;;;;0.50;0.50;;;10.00;99.90;;;;;;4984946;28;20034;-84
2023/01/02 01:38:33;;;;;;;0.30;0.30;;;10.00;99.90;;;;;;4988394;28;20049;-84
2023/01/02 01:40:59;;;;;;;1.20;0.40;;;10.00;99.90;;;;;;4982888;28;20055;-83
2023/01/02 01:43:37;;;;;;;0.43;0.43;;;10.00;99.90;;;;;;4981960;28;20046;-83
2023/01/02 01:46:25;;;;;;;0.30;0.30;;;10.00;99.90;;;;;;5003862;28;20038;-85
2023/01/02 01:49:02;;;;;;;0.40;0.40;;;10.10;99.90;;;;;;4990037;28;20044;-85
2023/01/02 01:51:32;;;;;;;0.52;0.52;;;10.10;99.90;;;;;;5004366;28;20153;-87
2023/01/02 01:54:07;;;;;;;0.57;0.57;;;10.00;99.90;;;;;;4974655;28;20061;-85
2023/01/02 01:56:36;;;;;;;0.57;0.57;;;10.10;99.90;;;;;;5002212;28;20038;-85
2023/01/02 01:59:02;;;;;;;0.30;0.30;;;10.10;99.90;;;;;;4966447;28;20033;-85
2023/01/02 02:01:28;;;;;;;0.40;0.40;;;10.10;99.90;;;;;;4968475;28;20133;-85
2023/01/02 02:03:54;;;;;;;0.50;0.50;;;10.10;99.90;;;;;;4987724;28;20117;-85
2023/01/02 02:06:20;;;;;;;0.40;0.40;;;10.10;99.90;;;;;;4984764;28;20488;-84
2023/01/02 02:09:31;;;;;;;0.50;0.50;;;10.10;99.90;;;;;;4985582;28;20042;-84
2023/01/02 02:11:57;;;;;;;0.32;0.32;;;10.10;99.90;;;;;;4961398;28;20058;-84
2023/01/02 02:14:23;;;;;;;0.50;0.50;;;10.10;99.90;;;;;;4970373;28;20507;-85
2023/01/02 02:17:14;;;;;;;0.90;0.90;;;10.20;99.90;;;;;;4970526;28;21118;-83
2023/01/02 02:20:02;;;;;;;0.52;0.52;;;10.20;99.90;;;;;;5005516;28;20054;-85
2023/01/02 02:22:56;;;;;;;0.75;0.75;;;10.20;99.90;;;;;;4985349;28;20096;-83
2023/01/02 02:25:56;;;;;;;0.63;0.60;;;10.20;99.90;;;;;;4970916;28;20066;-82
2023/01/02 02:28:56;;;;;;;0.38;0.38;;;10.20;99.90;;;;;;5001991;28;20089;-83
2023/01/02 02:32:00;;;;;;;0.40;0.40;;;10.20;99.90;;;;;;4984485;28;20034;-85
2023/01/02 02:34:32;;;;;;;0.47;0.47;;;10.20;99.90;;;;;;4985560;28;20451;-85
2023/01/02 02:37:25;;;;;;;0.30;0.30;;;10.30;99.90;;;;;;4984154;28;20053;-85
2023/01/02 02:40:14;;;;;;;0.45;0.45;;;10.30;99.90;;;;;;4997499;28;20043;-85
2023/01/02 02:42:45;;;;;;;0.43;0.43;;;10.30;99.90;;;;;;4983377;28;20510;-84
2023/01/02 02:45:26;;;;;;;0.65;0.65;;;10.30;99.90;;;;;;4966301;28;20133;-83
2023/01/02 02:48:10;;;;;;;0.50;0.50;;;10.40;99.90;;;;;;4985641;28;20042;-83
2023/01/02 02:50:58;;;;;;;0.50;0.50;;;10.40;99.90;;;;;;4986582;28;20054;-83
2023/01/02 02:53:31;;;;;;;0.40;0.40;;;10.40;99.90;;;;;;4985355;28;20077;-85
2023/01/02 02:55:59;;;;;;;0.30;0.30;;;10.50;99.90;;;;;;4969259;28;20050;-83
2023/01/02 02:58:26;;;;;;;0.40;0.40;;;10.40;99.90;;;;;;4983037;28;20046;-85
2023/01/02 03:01:04;;;;;;;0.82;0.82;;;10.40;99.90;;;;;;4970992;28;20519;-86
2023/01/02 03:03:30;;;;;;;0.38;0.38;;;10.50;99.90;;;;;;4985871;28;20557;-85
2023/01/02 03:06:18;;;;;;;0.40;0.40;;;10.50;99.90;;;;;;4985204;28;20058;-83
2023/01/02 03:09:05;;;;;;;0.30;0.30;;;10.50;99.90;;;;;;4970115;28;20106;-87
2023/01/02 03:11:49;;;;;;;;;;;10.50;99.90;;;;;;4982277;28;20484;-80
2023/01/02 03:14:30;;;;;;;1.13;1.13;;;10.50;99.90;;;;;;4984368;28;19928;-83
2023/01/02 03:17:02;;;;;;;0.30;0.30;;;10.50;99.90;;;;;;4968507;28;20046;-84
2023/01/02 03:19:48;;;;;;;0.77;0.77;;;10.70;99.90;;;;;;4988627;28;20206;-84
2023/01/02 03:22:30;;;;;;;0.30;0.30;;;10.50;99.90;;;;;;4985942;28;20145;-87
2023/01/02 03:24:57;;;;;;;1.17;1.15;;;10.50;99.90;;;;;;4967918;28;20077;-87
2023/01/02 03:27:29;;;;;;;0.40;0.40;;;10.60;99.90;;;;;;4970178;28;21138;-85
2023/01/02 03:30:03;;;;;;;0.73;0.73;;;10.50;99.90;;;;;;4984696;28;20109;-85
2023/01/02 03:32:35;;;;;;;0.38;0.38;;;10.60;99.90;;;;;;4982676;28;20503;-85
2023/01/02 03:35:10;;;;;;;0.40;0.40;;;10.60;99.90;;;;;;4967157;28;20050;-84
2023/01/02 03:37:41;;;;;;;0.30;0.30;;;10.60;99.90;;;;;;4985256;28;20069;-85
2023/01/02 03:40:16;;;;;;;0.30;0.30;;;10.70;99.90;;;;;;4982964;28;20046;-83
2023/01/02 03:42:51;;;;;;;0.40;0.40;;;10.70;99.90;;;;;;4986366;28;20046;-84
2023/01/02 03:45:26;;;;;;;1.42;1.33;;;10.70;99.90;;;;;;4983729;28;20046;-83
2023/01/02 03:47:55;;;;;;;0.85;0.85;;;10.70;99.90;;;;;;5000818;28;20126;-86
2023/01/02 03:50:31;;;;;;;0.77;0.77;;;10.70;99.90;;;;;;4984462;28;20050;-83
2023/01/02 03:52:58;;;;;;;0.50;0.50;;;10.70;99.90;;;;;;4983586;28;20422;-85
2023/01/02 03:55:26;;;;;;;0.30;0.30;;;10.70;99.90;;;;;;4980390;28;20683;-84
2023/01/02 03:58:17;;;;;;;1.83;0.60;;;10.70;99.90;;;;;;4987256;28;20038;-86
2023/01/02 04:01:06;;;;;;;1.10;1.00;;;10.80;99.90;;;;;;4970853;28;20480;-86
2023/01/02 04:03:43;;;;;;;0.40;0.40;;;10.70;99.90;;;;;;5004810;28;20034;-85
2023/01/02 04:06:15;;;;;;;0.30;0.30;;;10.80;99.90;;;;;;4989579;28;20077;-86
2023/01/02 04:08:58;;;;;;;1.00;0.38;;;10.70;99.90;;;;;;4989865;28;20057;-87
2023/01/02 04:11:27;;;;;;;3.83;1.25;;;10.80;99.90;;;;;;5009334;28;20042;-88
2023/01/02 04:13:59;;;;;;;2.05;1.95;;;10.80;99.90;;;;;;4994520;28;20123;-85
2023/01/02 04:16:32;;;;;;;1.05;1.05;;;10.80;99.90;;;;;;4999010;28;20599;-85
2023/01/02 04:19:08;;;;;;;0.75;0.75;;;10.80;99.90;;;;;;5009843;28;20518;-88
2023/01/02 04:21:37;;;;;;;0.50;0.50;;;10.80;99.90;;;;;;5001605;28;20047;-86
2023/01/02 04:24:14;;;;;;;0.45;0.45;;;10.80;99.90;;;;;;4990782;28;20484;-88
2023/01/02 04:26:54;;;;;;;0.55;0.50;;;10.80;99.90;;;;;;5003785;28;20049;-87
2023/01/02 04:29:19;;;;;;;1.70;1.60;;;10.80;99.90;;;;;;4988604;28;20112;-88
2023/01/02 04:32:06;;;;;;;;;;;10.90;99.90;;;;;;4978385;28;20046;-89
2023/01/02 04:34:35;;;;;;;1.05;1.05;;;10.90;99.90;;;;;;4989814;28;19953;-86
2023/01/02 04:37:01;;;;;;;1.08;0.98;;;10.80;99.90;;;;;;4997765;28;20049;-85
2023/01/02 04:39:28;;;;;;;0.57;0.50;;;10.80;99.90;;;;;;4996780;28;20094;-84
2023/01/02 04:41:54;;;;;;;1.55;0.80;;;10.80;99.90;;;;;;4994145;28;20042;-87
2023/01/02 04:44:20;;;;;;;0.85;0.85;;;10.80;99.90;;;;;;4992119;28;20061;-87
2023/01/02 04:46:45;;;;;;;2.13;2.03;;;10.80;99.90;;;;;;4977849;28;20491;-87
2023/01/02 04:49:11;;;;;;;0.60;0.60;;;10.80;99.90;;;;;;4959149;28;20046;-86
2023/01/02 04:51:37;;;;;;;0.75;0.73;;;10.80;99.90;;;;;;4993297;28;20045;-82
2023/01/02 04:54:03;;;;;;;0.35;0.35;;;10.80;99.90;;;;;;4997230;28;20070;-85
2023/01/02 04:56:29;;;;;;;0.43;0.43;;;10.80;99.90;;;;;;4996744;28;20034;-86
2023/01/02 04:58:55;;;;;;;3.22;0.95;;;10.80;99.90;;;;;;4991809;28;20125;-85
2023/01/02 05:01:20;;;;;;;0.50;0.50;;;10.80;99.90;;;;;;4989840;28;20038;-85
2023/01/02 05:03:51;;;;;;;0.38;0.38;;;10.80;99.90;;;;;;4975410;28;20526;-86
2023/01/02 05:06:17;;;;;;;0.60;0.60;;;10.80;99.90;;;;;;4986626;28;20073;-86
2023/01/02 05:08:42;;;;;;;0.93;0.93;;;10.80;99.90;;;;;;5002715;28;20941;-85
2023/01/02 05:11:11;;;;;;;0.55;0.55;;;10.80;99.90;;;;;;4990910;28;20439;-84
2023/01/02 05:13:37;;;;;;;0.50;0.50;;;10.80;99.90;;;;;;4989246;28;20039;-85
2023/01/02 05:16:03;;;;;;;0.50;0.50;;;10.80;99.90;;;;;;4973366;28;20046;-85
2023/01/02 05:18:30;;;;;;;0.30;0.30;;;10.80;99.90;;;;;;4972485;28;20125;-86
2023/01/02 05:23:47;;;;;;;0.60;0.60;;;10.80;99.90;;;;;;4990372;28;20062;-86
2023/01/02 05:23:57;;;;;;;1.92;1.83;;;10.80;99.90;;;;;;4993665;28;20113;-87
2023/01/02 05:26:23;;;;;;;0.55;0.55;;;10.90;99.90;;;;;;4993713;28;20037;-87
2023/01/02 05:28:52;;;;;;;0.40;0.40;;;10.90;99.90;;;;;;4973242;28;20030;-87
2023/01/02 05:31:18;;;;;;;0.40;0.40;;;10.80;99.90;;;;;;5002935;28;20070;-87
2023/01/02 05:33:43;;;;;;;1.95;0.75;;;10.80;99.90;;;;;;4991087;28;20038;-88
2023/01/02 05:36:09;;;;;;;1.55;0.65;;;10.80;99.90;;;;;;4992497;28;20045;-86
2023/01/02 05:38:36;;;;;;;0.82;0.82;;;10.80;99.90;;;;;;4976640;28;20073;-87
2023/01/02 05:41:06;;;;;;;0.50;0.50;;;10.80;99.90;;;;;;4974506;28;20039;-88
2023/01/02 05:43:34;;;;;;;0.50;0.50;;;10.80;99.90;;;;;;4975529;28;20035;-88
2023/01/02 05:46:08;;;;;;;0.50;0.50;;;10.80;99.90;;;;;;4975634;28;20053;-88
2023/01/02 05:48:34;;;;;;;0.47;0.43;;;10.80;99.90;;;;;;4988285;28;20034;-86
2023/01/02 05:51:02;;;;;;;0.40;0.40;;;10.80;99.90;;;;;;4985460;28;20042;-87
2023/01/02 05:53:28;;;;;;;0.40;0.40;;;10.80;99.90;;;;;;4979971;28;20484;-88
2023/01/02 05:55:53;;;;;;;0.30;0.30;;;10.80;99.90;;;;;;4979757;28;20066;-88
2023/01/02 05:58:19;;;;;;;0.40;0.40;;;10.80;99.90;;;;;;4976695;28;20124;-88
2023/01/02 06:00:45;;;;;;;0.40;0.40;;;10.80;99.90;;;;;;4992221;28;20038;-88
2023/01/02 06:03:11;;;;;;;0.85;0.85;;;10.80;99.90;;;;;;4978542;28;20038;-88
2023/01/02 06:05:36;;;;;;;1.00;1.00;;;10.80;99.90;;;;;;4981673;28;20038;-87
2023/01/02 06:08:02;;;;;;;0.60;0.60;;;10.80;99.90;;;;;;4990767;28;20484;-86
2023/01/02 06:10:28;;;;;;;0.45;0.45;;;10.80;99.90;;;;;;5005156;28;20066;-85
2023/01/02 06:12:53;;;;;;;0.93;0.93;;;10.80;99.90;;;;;;5002094;28;20038;-83
2023/01/02 06:15:19;;;;;;;0.55;0.55;;;10.80;99.90;;;;;;5004856;28;20038;-86
2023/01/02 06:17:45;;;;;;;0.38;0.38;;;10.80;99.90;;;;;;4982905;28;20126;-87
2023/01/02 06:20:10;;;;;;;0.47;0.47;;;10.80;99.90;;;;;;5006032;28;20062;-87
2023/01/02 06:22:36;;;;;;;0.47;0.47;;;10.80;99.90;;;;;;4976573;28;20034;-87
2023/01/02 06:25:02;;;;;;;0.40;0.40;;;10.80;99.90;;;;;;4975049;28;20093;-88
2023/01/02 06:27:30;;;;;;;0.88;0.50;;;10.80;99.90;;;;;;4990881;28;20077;-86
2023/01/02 06:29:55;;;;;;;0.30;0.30;;;10.80;99.90;;;;;;4986907;28;20077;-85
2023/01/02 06:32:21;;;;;;;0.73;0.63;;;10.80;99.90;;;;;;4987045;28;20046;-85
2023/01/02 06:34:47;;;;;;;0.30;0.30;;;10.80;99.90;;;;;;4957800;28;20551;-87
2023/01/02 06:37:12;;;;;;;0.60;0.60;;;10.80;99.90;;;;;;4988724;28;20121;-88
2023/01/02 06:39:38;;;;;;;0.40;0.40;;;10.80;99.90;;;;;;5007019;28;20042;-88
2023/01/02 06:42:04;;;;;;;0.50;0.50;;;10.80;99.90;;;;;;4989251;28;20369;-88
2023/01/02 06:44:30;;;;;;;0.50;0.50;;;10.80;99.90;;;;;;4972101;28;20049;-88
2023/01/02 06:46:55;;;;;;;0.70;0.70;;;10.80;99.90;;;;;;4973312;28;20043;-89
2023/01/02 06:49:21;;;;;;;0.52;0.52;;;10.80;99.90;;;;;;5007079;28;20049;-88
2023/01/02 06:51:47;;;;;;;0.50;0.50;;;10.70;99.90;;;;;;4975093;28;20076;-87
2023/01/02 06:54:12;;;;;;;0.47;0.47;;;10.70;99.90;;;;;;4983633;28;20058;-87
2023/01/02 06:56:39;;;;;;;2.05;0.70;;;10.60;99.90;;;;;;4958365;28;20046;-88
2023/01/02 06:59:05;;;;;;;0.35;0.35;;;10.60;99.90;;;;;;4992841;28;20026;-86
2023/01/02 07:01:31;;;;;;;0.40;0.40;;;10.60;99.90;;;;;;4975282;28;20479;-88
2023/01/02 07:03:56;;;;;;;0.60;0.60;;;10.60;99.90;;;;;;5006598;28;20038;-86
2023/01/02 07:06:22;;;;;;;2.47;0.93;;;10.60;99.90;;;;;;5003217;28;20046;-86
2023/01/02 07:08:48;;;;;;;1.02;1.02;;;10.50;99.90;;;;;;5002132;28;20459;-85
2023/01/02 07:11:16;;;;;;;0.63;0.63;;;10.30;99.90;;;;;;4995758;28;20042;-85
2023/01/02 07:13:43;;;;;;;0.35;0.35;;;10.10;99.90;;;;;;5003436;28;20074;-88
2023/01/02 07:16:11;;;;;;;0.32;0.32;;;9.70;99.90;;;;;;4988848;28;20487;-86
2023/01/02 07:18:37;;;;;;;0.40;0.40;;;9.50;99.90;;;;;;4980746;28;20149;-86
2023/01/02 07:21:05;;;;;;;0.50;0.50;;;9.30;99.90;;;;;;4951448;28;20173;-88
2023/01/02 07:23:30;;;;;;;0.40;0.40;;;9.10;99.90;;;;;;5002423;28;20046;-85
2023/01/02 07:25:59;;;;;;;0.40;0.40;;;9.00;99.90;;;;;;4983953;28;20404;-88
2023/01/02 07:28:26;;;;;;;0.30;0.30;;;8.80;99.90;;;;;;4989016;28;20034;-88
2023/01/02 07:30:56;;;;;;;0.85;0.85;;;8.80;99.90;;;;;;4971588;28;20132;-86
2023/01/02 07:33:22;;;;;;;0.65;0.65;;;8.60;99.90;;;;;;4987444;28;20092;-85
2023/01/02 07:35:47;;;;;;;0.40;0.40;;;8.50;99.90;;;;;;5003735;28;20558;-86
2023/01/02 07:38:13;;;;;;;0.40;0.40;;;8.40;99.90;;;;;;4987545;28;20046;-87
2023/01/02 07:40:39;;;;;;;0.50;0.50;;;8.30;99.90;;;;;;4987236;28;20089;-88
2023/01/02 07:43:05;;;;;;;0.47;0.47;;;8.20;99.90;;;;;;4985938;28;20135;-85
2023/01/02 07:45:33;;;;;;;0.57;0.57;;;8.00;99.90;;;;;;4972502;28;20053;-86
2023/01/02 07:47:59;;;;;;;0.60;0.60;;;8.00;99.90;;;;;;4987172;28;20093;-85
2023/01/02 07:50:24;;;;;;;0.52;0.52;;;6.60;99.90;;;;;;4971905;28;20050;-86
2023/01/02 07:52:50;;;;;;;0.50;0.50;;;7.90;99.90;;;;;;4970809;28;20046;-87
2023/01/02 07:55:16;;;;;;;1.58;0.70;;;7.90;99.90;;;;;;4987852;28;20137;-88
2023/01/02 07:57:41;;;;;;;0.50;0.50;;;7.90;99.90;;;;;;4984027;28;20444;-86
2023/01/02 08:00:08;;;;;;;0.32;0.32;;;7.80;99.90;;;;;;4963376;28;20077;-86
2023/01/02 08:02:34;;;;;;;0.57;0.50;;;7.80;99.90;;;;;;4985153;28;20064;-86
2023/01/02 08:05:00;;;;;;;0.50;0.50;;;7.80;99.90;;;;;;4971490;28;20038;-84
2023/01/02 08:07:25;;;;;;;0.50;0.50;;;7.80;99.90;;;;;;4950250;28;20101;-85
2023/01/02 08:09:51;;;;;;;0.40;0.40;;;7.80;99.90;;;;;;4997899;28;20038;-82
2023/01/02 08:12:17;;;;;;;0.50;0.50;;;7.80;99.90;;;;;;4983256;28;20053;-86
2023/01/02 08:14:42;;;;;;;0.52;0.52;;;7.80;99.90;;;;;;4982465;28;21035;-85
2023/01/02 08:17:08;;;;;;;0.40;0.40;;;7.70;99.90;;;;;;4990539;28;20038;-88
2023/01/02 08:19:34;;;;;;;0.50;0.50;;;7.80;99.90;;;;;;4967004;28;20173;-83
2023/01/02 08:22:00;;;;;;;0.50;0.50;;;7.80;99.90;;;;;;4967048;28;20138;-84
2023/01/02 08:24:26;;;;;;;0.60;0.60;;;7.80;99.90;;;;;;4981320;28;20046;-83
2023/01/02 08:26:52;;;;;;;0.60;0.60;;;7.80;99.90;;;;;;4979417;28;20069;-83
2023/01/02 08:29:18;;;;;;;0.50;0.50;;;7.80;99.90;;;;;;4985761;28;20044;-83
2023/01/02 08:31:43;;;;;;;0.57;0.57;;;7.80;99.90;;;;;;4989774;28;20097;-84
2023/01/02 08:34:13;;;;;;;0.55;0.55;;;7.80;99.90;;;;;;4988028;28;20145;-83
2023/01/02 08:36:43;;;;;;;0.50;0.50;;;7.80;99.90;;;;;;4967200;28;20042;-84
2023/01/02 08:39:09;;;;;;;0.50;0.50;;;7.80;99.90;;;;;;4971914;28;20038;-84
2023/01/02 08:41:39;;;;;;;0.70;0.70;;;7.90;99.90;;;;;;4971039;28;20106;-84
2023/01/02 08:44:06;;;;;;;0.30;0.30;;;7.80;99.90;;;;;;4986316;28;20399;-85
2023/01/02 08:46:33;;;;;;;0.40;0.40;;;7.90;99.90;;;;;;4988044;28;20120;-84
2023/01/02 08:48:59;;;;;;;0.50;0.50;;;7.80;99.90;;;;;;4970613;28;20046;-83
2023/01/02 08:51:25;;;;;;;0.60;0.60;;;7.90;99.90;;;;;;4985132;28;20072;-84
2023/01/02 08:53:51;;;;;;;0.60;0.60;;;7.90;99.90;;;;;;4991648;28;20046;-84
2023/01/02 08:56:24;;;;;;;0.45;0.45;;;7.90;99.90;;;;;;4966309;28;20046;-84
2023/01/02 08:59:07;;;;;;;0.55;0.55;;;7.90;99.90;;;;;;4981384;28;20139;-85
2023/01/02 09:01:33;;;;;;;0.40;0.40;;;7.90;99.90;;;;;;4982514;28;20086;-84
2023/01/02 09:03:59;;;;;;;;;;;7.90;99.90;;;;;;4984262;28;21418;-84
2023/01/02 09:06:26;;;;;;;0.40;0.40;;;7.90;99.90;;;;;;4977765;28;19945;-84
2023/01/02 09:08:54;;;;;;;0.40;0.40;;;7.90;99.90;;;;;;4951855;28;20129;-84
2023/01/02 09:11:26;;;;;;;0.50;0.50;;;8.00;99.90;;;;;;4960558;28;20392;-84
2023/01/02 09:13:52;;;;;;;0.40;0.40;;;7.90;99.90;;;;;;4995404;28;20097;-84
2023/01/02 09:16:18;;;;;;;0.70;0.70;;;7.90;99.90;;;;;;5009314;28;20962;-84
2023/01/02 09:18:44;;;;;;;1.08;0.85;;;7.90;99.90;;;;;;4978051;28;20042;-84
2023/01/02 09:21:10;;;;;;;0.47;0.47;;;7.90;99.90;;;;;;4983902;28;20101;-84
2023/01/02 09:23:35;;;;;;;0.50;0.50;;;7.90;99.90;;;;;;4960677;28;20460;-84
2023/01/02 09:26:03;;;;;;;0.60;0.60;;;7.90;99.90;;;;;;4976585;28;20456;-83
2023/01/02 09:28:32;;;;;;;0.50;0.50;;;8.00;99.90;;;;;;4997535;28;20042;-84
2023/01/02 09:30:58;;;;;;;0.50;0.50;;;8.00;99.90;;;;;;4990929;28;20034;-84
2023/01/02 09:33:24;;;;;;;0.38;0.38;;;8.00;99.90;;;;;;4977737;28;20663;-83
2023/01/02 09:35:50;;;;;;;0.38;0.38;;;8.00;99.90;;;;;;4988242;28;20042;-84
2023/01/02 09:38:16;;;;;;;0.52;0.52;;;8.40;99.90;;;;;;5007079;28;20054;-84
2023/01/02 09:40:52;;;;;;;0.40;0.40;;;8.00;99.90;;;;;;4987972;28;20046;-84
2023/01/02 09:43:42;;;;;;;0.45;0.45;;;8.00;99.90;;;;;;4967096;28;20042;-85
2023/01/02 09:46:19;;;;;;;0.55;0.55;;;8.00;99.90;;;;;;4967405;28;20108;-85
2023/01/02 09:48:44;;;;;;;0.50;0.50;;;8.00;99.90;;;;;;4983261;28;20039;-84
2023/01/02 09:51:11;;;;;;;0.55;0.55;;;8.10;99.90;;;;;;4986579;28;20114;-84
2023/01/02 09:53:42;;;;;;;0.60;0.60;;;8.10;99.90;;;;;;4965910;28;20057;-83
2023/01/02 09:56:26;;;;;;;0.50;0.50;;;8.10;99.90;;;;;;4998018;28;20042;-84
2023/01/02 09:58:57;;;;;;;0.50;0.50;;;8.10;99.90;;;;;;4985405;28;20437;-84
2023/01/02 10:01:33;;;;;;;0.57;0.57;;;8.20;99.90;;;;;;4986567;28;20081;-84
2023/01/02 10:04:12;;;;;;;0.40;0.40;;;8.10;99.90;;;;;;4984588;28;20062;-85
2023/01/02 10:07:09;;;;;;;0.43;0.43;;;8.20;99.90;;;;;;4982249;28;20054;-84
2023/01/02 10:10:00;;;;;;;0.50;0.50;;;8.20;99.90;;;;;;4981024;28;20046;-85
2023/01/02 10:12:50;;;;;;;0.80;0.80;;;8.20;99.90;;;;;;4980906;28;20057;-83
2023/01/02 10:15:23;;;;;;;0.40;0.40;;;8.20;99.90;;;;;;4983934;28;20149;-83
2023/01/02 10:17:52;;;;;;;0.45;0.45;;;8.20;99.90;;;;;;4967932;28;20766;-85
2023/01/02 10:20:27;;;;;;;0.45;0.45;;;8.20;99.90;;;;;;4966093;28;21681;-84
2023/01/02 10:23:00;;;;;;;0.77;0.77;;;8.20;99.90;;;;;;4983596;28;20043;-83
2023/01/02 10:25:49;;;;;;;0.70;0.70;;;8.50;99.90;;;;;;4981061;28;20082;-84
2023/01/02 10:28:53;;;;;;;0.50;0.50;;;8.20;99.90;;;;;;4983048;28;20487;-83
2023/01/02 10:31:37;;;;;;;0.50;0.50;;;8.20;99.90;;;;;;4981310;28;20050;-84
2023/01/02 10:34:07;;;;;;;0.68;0.68;;;8.20;99.90;;;;;;4989826;28;20504;-84
2023/01/02 10:36:41;;;;;;;0.50;0.50;;;8.10;99.90;;;;;;4984225;28;20048;-84
2023/01/02 10:39:12;;;;;;;0.40;0.40;;;8.10;99.90;;;;;;4968539;28;20046;-85
2023/01/02 10:41:39;;;;;;;0.50;0.50;;;8.10;99.90;;;;;;4984128;28;20387;-84
2023/01/02 10:44:33;;;;;;;0.85;0.85;;;8.10;99.90;;;;;;4970894;28;20484;-84
2023/01/02 10:47:18;;;;;;;0.40;0.40;;;8.10;99.90;;;;;;4993034;28;20108;-84
2023/01/02 10:49:44;;;;;;;0.60;0.60;;;8.10;99.90;;;;;;5003240;28;20499;-85
2023/01/02 10:52:39;;;;;;;0.50;0.50;;;8.20;99.90;;;;;;4983068;28;20085;-86
2023/01/02 10:55:05;;;;;;;0.50;0.50;;;8.20;99.90;;;;;;4982307;28;20057;-83
2023/01/02 10:57:43;;;;;;;0.90;0.90;;;8.30;99.90;;;;;;4982892;28;20042;-85
2023/01/02 11:00:30;;;;;;;0.55;0.55;;;8.20;99.90;;;;;;4993057;28;20909;-83
2023/01/02 11:03:21;;;;;;;1.80;1.70;;;8.30;99.90;;;;;;4950987;28;20134;-82
2023/01/02 11:05:52;;;;;;;0.40;0.40;;;8.30;99.90;;;;;;4974587;28;20133;-83
2023/01/02 11:08:22;;;;;;;0.50;0.50;;;8.30;99.90;;;;;;4978520;28;20046;-81
2023/01/02 11:10:49;;;;;;;1.40;1.38;;;8.30;99.90;;;;;;4981604;28;20046;-83
2023/01/02 11:13:17;;;;;;;1.73;1.63;;;8.40;99.90;;;;;;4965030;28;20488;-82
2023/01/02 11:15:51;;;;;;;0.50;0.50;;;8.40;99.90;;;;;;4984658;28;20135;-83
2023/01/02 11:18:24;;;;;;;0.40;0.40;;;8.50;99.90;;;;;;4978845;28;20084;-84
2023/01/02 11:20:53;;;;;;;0.80;0.80;;;8.60;99.90;;;;;;4967884;28;20054;-84
2023/01/02 11:23:23;;;;;;;0.50;0.50;;;8.60;99.90;;;;;;4981746;28;20050;-83
2023/01/02 11:25:52;;;;;;;1.65;0.88;;;8.60;99.90;;;;;;4981259;28;20101;-82
2023/01/02 11:28:25;;;;;;;0.55;0.55;;;8.60;99.90;;;;;;4982039;28;20057;-83
2023/01/02 11:30:53;;;;;;;0.40;0.40;;;8.60;99.90;;;;;;4983357;28;20085;-83
2023/01/02 11:33:26;;;;;;;0.40;0.40;;;8.60;99.90;;;;;;4998967;28;20045;-83
2023/01/02 11:35:56;;;;;;;0.57;0.57;;;8.70;99.90;;;;;;4965176;28;20447;-82
2023/01/02 11:38:26;;;;;;;0.47;0.47;;;8.70;99.90;;;;;;4981783;28;20137;-83
2023/01/02 11:40:54;;;;;;;0.73;0.73;;;8.80;99.90;;;;;;4990000;28;20061;-84
2023/01/02 11:46:34;;;;;;;0.50;0.50;;;8.80;99.90;;;;;;4988503;28;22006;-83
2023/01/02 11:49:10;;;;;;;0.50;0.50;;;8.90;99.90;;;;;;4975219;28;20070;-85
2023/01/02 11:51:37;;;;;;;0.80;0.77;;;8.90;99.90;;;;;;4987536;28;20137;-83
2023/01/02 11:54:12;;;;;;;0.50;0.50;;;8.90;99.90;;;;;;4986878;28;20043;-83
2023/01/02 11:56:41;;;;;;;0.30;0.30;;;9.00;99.90;;;;;;4987348;28;20719;-82
2023/01/02 11:59:17;;;;;;;0.40;0.40;;;8.90;99.90;;;;;;4990367;28;20038;-83
2023/01/02 12:02:10;;;;;;;0.50;0.50;;;8.90;99.90;;;;;;4985848;28;20105;-84
2023/01/02 12:04:35;;;;;;;0.80;0.80;;;8.80;99.90;;;;;;4990073;28;20050;-84
2023/01/02 12:07:41;;;;;;;0.60;0.60;;;8.80;99.90;;;;;;4987518;28;20039;-83
2023/01/02 12:10:16;;;;;;;0.63;0.63;;;8.80;99.90;;;;;;4984446;28;20065;-83
2023/01/02 12:12:44;;;;;;;0.32;0.32;;;8.80;99.90;;;;;;4973909;28;20069;-83
2023/01/02 12:15:27;;;;;;;0.70;0.70;;;8.80;99.90;;;;;;4992330;28;20042;-84
2023/01/02 12:17:55;;;;;;;0.50;0.50;;;8.80;99.90;;;;;;4989836;28;20077;-84
2023/01/02 12:20:39;;;;;;;0.70;0.70;;;8.80;99.90;;;;;;4992537;28;20364;-84
2023/01/02 12:23:32;;;;;;;0.73;0.73;;;8.80;99.90;;;;;;4971581;28;20161;-83
2023/01/02 12:26:24;;;;;;;0.40;0.40;;;8.80;99.90;;;;;;4968780;28;20084;-83
2023/01/02 12:29:03;;;;;;;0.40;0.40;;;8.80;99.90;;;;;;4988532;28;20141;-84
2023/01/02 12:31:46;;;;;;;0.55;0.55;;;8.80;99.90;;;;;;5005973;28;20506;-83
2023/01/02 12:34:37;;;;;;;0.32;0.32;;;8.80;99.90;;;;;;4986495;28;20480;-82
2023/01/02 12:37:14;;;;;;;0.40;0.40;;;8.80;99.90;;;;;;4988973;28;20030;-83
2023/01/02 12:40:02;;;;;;;0.50;0.50;;;8.90;99.90;;;;;;4974784;28;20100;-86
2023/01/02 12:42:57;;;;;;;0.50;0.50;;;8.80;99.90;;;;;;4973685;28;20095;-83
2023/01/02 12:45:54;;;;;;;1.20;1.20;;;8.90;99.90;;;;;;4997125;28;20049;-85
2023/01/02 12:48:46;;;;;;;0.47;0.47;;;8.90;99.90;;;;;;4987230;28;20042;-83
2023/01/02 12:51:38;;;;;;;0.95;0.80;;;8.80;99.90;;;;;;4989426;28;20519;-83
2023/01/02 12:54:09;;;;;;;0.60;0.60;;;8.80;99.90;;;;;;4990932;28;21707;-84
2023/01/02 12:56:43;;;;;;;0.50;0.50;;;8.80;99.90;;;;;;4987322;28;20030;-83
2023/01/02 12:59:21;;;;;;;0.93;0.63;;;8.90;99.90;;;;;;4988680;28;20464;-83
2023/01/02 13:02:04;;;;;;;0.52;0.52;;;8.90;99.90;;;;;;5005818;28;20129;-83
2023/01/02 13:04:35;;;;;;;0.43;0.43;;;8.90;99.90;;;;;;4987667;28;20043;-83
2023/01/02 13:07:16;;;;;;;1.60;1.30;;;9.00;99.90;;;;;;4985983;28;20061;-84
2023/01/02 13:09:44;;;;;;;0.40;0.40;;;8.90;99.90;;;;;;4986497;28;20038;-83
2023/01/02 13:12:19;;;;;;;0.50;0.50;;;9.00;99.90;;;;;;4996576;28;20093;-84
2023/01/02 13:14:53;;;;;;;0.47;0.47;;;9.00;99.90;;;;;;4999736;28;20124;-83
2023/01/02 13:17:35;;;;;;;0.50;0.50;;;9.60;99.90;;;;;;4991330;28;20391;-83
2023/01/02 13:20:24;;;;;;;0.47;0.47;;;9.00;99.90;;;;;;4986075;28;20043;-83